Time;durP1;ratioP1;P1;durP2;ratioP2;P2;SDS_P1;SDS_P2;PMS_P1;PMS_P2;Temp;Humidity;BMP_temperature;BMP_pressure;BME280_temperature;BME280_humidity;BME280_pressure;Samples;Min_cycle;Max_cycle;Signal;HPM_P1;HPM_P2
2022/10/16 00:00:26;;;;;;;3.77;2.10;;;16.80;99.90;;;;;;4963729;28;20489;-84
2022/10/16 00:03:25;;;;;;;2.17;1.97;;;16.60;99.90;;;;;;4977320;28;20516;-84
2022/10/16 00:06:08;;;;;;;1.80;1.70;;;16.40;99.90;;;;;;4957480;28;20465;-83
2022/10/16 00:12:15;;;;;;;1.90;1.80;;;16.40;99.90;;;;;;4954322;28;20974;-81
2022/10/16 00:15:21;;;;;;;1.80;1.70;;;16.70;99.90;;;;;;4955014;29;20455;-81
2022/10/16 00:18:32;;;;;;;1.73;1.50;;;16.80;99.90;;;;;;4958431;28;20468;-82
2022/10/16 00:21:25;;;;;;;4.20;1.80;;;16.80;99.90;;;;;;4956789;28;20465;-81
2022/10/16 00:27:48;;;;;;;1.50;1.40;;;16.70;99.90;;;;;;4952574;28;20478;-82
2022/10/16 00:30:57;;;;;;;1.30;1.20;;;16.80;99.90;;;;;;4957502;29;20536;-84
2022/10/16 00:33:43;;;;;;;1.93;1.37;;;16.70;99.90;;;;;;4957851;28;20453;-82
2022/10/16 00:36:40;;;;;;;2.70;1.30;;;16.70;99.90;;;;;;4951896;28;20473;-83
2022/10/16 00:39:55;;;;;;;1.70;1.20;;;16.60;99.90;;;;;;4955452;28;20433;-82
2022/10/16 00:42:56;;;;;;;1.20;1.10;;;16.60;99.90;;;;;;4951773;28;20445;-82
2022/10/16 00:46:13;;;;;;;1.60;1.50;;;16.60;99.90;;;;;;4957189;28;20475;-83
2022/10/16 00:49:14;;;;;;;1.60;1.50;;;16.60;99.90;;;;;;4954875;29;20511;-84
2022/10/16 00:52:16;;;;;;;2.13;1.77;;;16.60;99.90;;;;;;4929617;29;20485;-81
2022/10/16 00:55:02;;;;;;;1.67;1.57;;;16.50;99.90;;;;;;4956425;28;20452;-82
2022/10/16 00:58:27;;;;;;;2.40;1.60;;;16.50;99.90;;;;;;4948025;29;20511;-83
2022/10/16 01:01:29;;;;;;;1.40;1.20;;;16.50;99.90;;;;;;4961407;28;20572;-84
2022/10/16 01:05:02;;;;;;;3.23;1.67;;;16.50;99.90;;;;;;4957698;29;20452;-84
2022/10/16 01:12:04;;;;;;;1.77;1.40;;;16.60;99.90;;;;;;4951892;29;20461;-83
2022/10/16 01:18:16;;;;;;;8.10;2.27;;;16.40;99.90;;;;;;4966185;29;20496;-84
2022/10/16 01:21:28;;;;;;;1.90;1.50;;;16.40;99.90;;;;;;4959436;28;20461;-83
2022/10/16 01:24:32;;;;;;;2.10;1.43;;;16.40;99.90;;;;;;4960445;29;20487;-83
2022/10/16 01:27:44;;;;;;;1.80;1.63;;;16.40;99.90;;;;;;4950933;29;20499;-83
2022/10/16 01:38:30;;;;;;;1.73;1.63;;;16.50;99.90;;;;;;4941135;28;20485;-84
2022/10/16 01:41:53;;;;;;;1.87;1.50;;;16.50;99.90;;;;;;4952949;28;20469;-81
2022/10/16 01:45:23;;;;;;;;;;;;;;;;;;;;;
2022/10/16 01:48:29;;;;;;;;;;;;;;;;;;;;;
2022/10/16 01:51:20;;;;;;;2.47;1.70;;;16.50;99.90;;;;;;4950631;28;20453;-84
2022/10/16 01:54:02;;;;;;;3.77;1.53;;;16.40;99.90;;;;;;4961305;29;20457;-83
2022/10/16 01:57:11;;;;;;;1.50;1.40;;;16.40;99.90;;;;;;4957605;28;20588;-82
2022/10/16 01:59:57;;;;;;;1.60;1.50;;;16.30;99.90;;;;;;4956168;29;20516;-83
2022/10/16 02:03:07;;;;;;;1.90;1.80;;;16.30;99.90;;;;;;4958949;28;20509;-83
2022/10/16 02:06:03;;;;;;;1.30;1.20;;;16.40;99.90;;;;;;4987773;28;20512;-83
2022/10/16 02:08:57;;;;;;;1.90;1.73;;;16.50;99.90;;;;;;4895680;29;20474;-82
2022/10/16 02:12:02;;;;;;;2.60;2.40;;;16.50;99.90;;;;;;4888581;29;20456;-81
2022/10/16 02:14:51;;;;;;;2.30;1.60;;;16.40;99.90;;;;;;4872210;29;20524;-84
2022/10/16 02:17:32;;;;;;;1.93;1.83;;;16.50;99.90;;;;;;4885706;29;20491;-84
2022/10/16 02:20:26;;;;;;;1.40;1.30;;;16.50;99.90;;;;;;4879268;29;20555;-82
2022/10/16 02:23:30;;;;;;;1.70;1.60;;;16.60;99.90;;;;;;4865847;29;20453;-83
2022/10/16 02:26:16;;;;;;;2.20;1.30;;;16.50;99.90;;;;;;4884005;29;20457;-82
2022/10/16 02:29:18;;;;;;;1.30;1.20;;;16.50;99.90;;;;;;4881870;29;20537;-82
2022/10/16 02:36:04;;;;;;;1.53;1.43;;;16.50;99.90;;;;;;4957212;28;20554;-83
2022/10/16 02:39:23;;;;;;;1.30;1.20;;;16.30;99.90;;;;;;4956422;28;20445;-83
2022/10/16 02:51:22;;;;;;;1.70;1.47;;;16.60;99.90;;;;;;4999042;28;20506;-82
2022/10/16 03:01:04;;;;;;;;;;;;;;;;;;;;;
2022/10/16 03:04:01;;;;;;;1.70;1.57;;;16.40;99.90;;;;;;4968743;28;20443;-83
2022/10/16 03:06:48;;;;;;;1.00;0.90;;;16.60;99.90;;;;;;4992764;28;20480;-83
2022/10/16 03:09:59;;;;;;;1.00;0.97;;;16.30;99.90;;;;;;4994100;28;20447;-82
2022/10/16 03:13:24;;;;;;;2.50;1.33;;;16.30;99.90;;;;;;5005130;28;20515;-84
2022/10/16 03:16:06;;;;;;;1.67;1.00;;;16.60;99.90;;;;;;4976341;28;20453;-84
2022/10/16 03:18:59;;;;;;;2.90;1.20;;;16.60;99.90;;;;;;4995247;28;20440;-83
2022/10/16 03:21:49;;;;;;;5.10;1.37;;;16.60;99.90;;;;;;4994655;28;20440;-83
2022/10/16 03:24:54;;;;;;;;;;;;;;;;;;;;;
2022/10/16 03:27:49;;;;;;;1.33;1.23;;;16.40;99.90;;;;;;4989597;28;20462;-85
2022/10/16 03:30:57;;;;;;;1.27;1.10;;;16.30;99.90;;;;;;5002847;28;20531;-84
2022/10/16 03:33:45;;;;;;;1.17;1.07;;;16.50;99.90;;;;;;4952355;28;20498;-81
2022/10/16 03:36:32;;;;;;;2.17;1.67;;;16.40;99.90;;;;;;4996053;28;20455;-82
2022/10/16 03:39:17;;;;;;;1.53;1.10;;;16.50;99.90;;;;;;4988815;28;20448;-83
2022/10/16 03:42:25;;;;;;;1.47;1.07;;;16.30;99.90;;;;;;4974746;28;20639;-83
2022/10/16 03:45:05;;;;;;;1.57;1.10;;;16.30;99.90;;;;;;5000114;28;20455;-83
2022/10/16 03:48:05;;;;;;;1.63;1.10;;;16.20;99.90;;;;;;4990284;28;20453;-84
2022/10/16 03:50:54;;;;;;;;;;;;;;;;;;;;;
2022/10/16 03:54:26;;;;;;;;;;;;;;;;;;;;;
2022/10/16 03:57:33;;;;;;;1.63;1.23;;;16.40;99.90;;;;;;5006014;28;20518;-83
2022/10/16 04:00:46;;;;;;;1.37;1.27;;;16.30;99.90;;;;;;4990216;28;20466;-83
2022/10/16 04:03:31;;;;;;;;;;;;;;;;;;;;;
2022/10/16 04:06:40;;;;;;;1.33;1.10;;;16.30;99.90;;;;;;4973421;28;20495;-82
2022/10/16 04:09:45;;;;;;;1.80;1.40;;;16.50;99.90;;;;;;4998914;28;20464;-81
2022/10/16 04:12:32;;;;;;;;;;;;;;;;;;;;;
2022/10/16 04:15:15;;;;;;;1.53;1.43;;;16.30;99.90;;;;;;4994835;28;20440;-81
2022/10/16 04:18:37;;;;;;;;;;;;;;;;;;;;;
2022/10/16 04:21:24;;;;;;;1.90;1.00;;;16.40;99.90;;;;;;4983781;28;20595;-83
2022/10/16 04:24:25;;;;;;;1.20;1.10;;;16.40;99.90;;;;;;4939071;29;20513;-83
2022/10/16 04:27:55;;;;;;;1.50;1.00;;;16.40;99.90;;;;;;4942007;29;20481;-84
2022/10/16 04:30:53;;;;;;;2.00;1.37;;;16.50;99.90;;;;;;4957862;29;20446;-84
2022/10/16 04:34:01;;;;;;;1.47;1.00;;;16.50;99.90;;;;;;4958599;29;20533;-84
2022/10/16 04:37:01;;;;;;;1.30;1.03;;;16.40;99.90;;;;;;4941872;29;20453;-83
2022/10/16 04:39:48;;;;;;;2.40;1.30;;;16.50;99.90;;;;;;4958305;29;20513;-84
2022/10/16 04:42:26;;;;;;;1.53;1.30;;;16.40;99.90;;;;;;4930926;29;20465;-81
2022/10/16 04:45:38;;;;;;;4.33;1.60;;;16.50;99.90;;;;;;4945983;29;20474;-82
2022/10/16 04:48:37;;;;;;;0.90;0.90;;;16.30;99.90;;;;;;4933203;29;20497;-81
2022/10/16 04:51:32;;;;;;;1.37;1.27;;;16.30;99.90;;;;;;4918985;29;20466;-82
2022/10/16 04:54:50;;;;;;;1.73;1.17;;;16.40;99.90;;;;;;4923672;28;20456;-83
2022/10/16 05:00:52;;;;;;;2.93;1.73;;;16.30;99.90;;;;;;4999443;28;20463;-83
2022/10/16 05:04:14;;;;;;;1.80;1.37;;;16.20;99.90;;;;;;4980759;28;20467;-83
2022/10/16 05:07:31;;;;;;;1.43;1.20;;;16.30;99.90;;;;;;4954863;28;20516;-84
2022/10/16 05:10:33;;;;;;;;;;;;;;;;;;;;;
2022/10/16 05:13:45;;;;;;;2.27;1.43;;;16.40;99.90;;;;;;4964230;28;20559;-82
2022/10/16 05:16:49;;;;;;;;;;;;;;;;;;;;;
2022/10/16 05:19:40;;;;;;;1.17;1.03;;;16.40;99.90;;;;;;4993633;28;20458;-82
2022/10/16 05:22:37;;;;;;;1.57;1.37;;;16.30;99.90;;;;;;4993185;28;20459;-80
2022/10/16 05:25:20;;;;;;;1.20;1.10;;;16.50;99.90;;;;;;4990379;28;20463;-83
2022/10/16 05:28:02;;;;;;;1.30;1.20;;;16.40;99.90;;;;;;4996264;28;21077;-83
2022/10/16 05:31:05;;;;;;;1.80;1.23;;;16.60;99.90;;;;;;4985904;28;20823;-82
2022/10/16 05:33:43;;;;;;;1.47;1.10;;;16.40;99.90;;;;;;4993810;28;20566;-82
2022/10/16 05:40:03;;;;;;;1.30;1.20;;;16.40;99.90;;;;;;4995883;28;20455;-83
2022/10/16 05:46:11;;;;;;;1.40;1.30;;;16.50;99.90;;;;;;4988332;28;20442;-83
2022/10/16 05:48:59;;;;;;;1.60;1.50;;;16.50;99.90;;;;;;4999855;28;20458;-82
2022/10/16 05:52:08;;;;;;;1.23;1.13;;;16.40;99.90;;;;;;4938966;29;20462;-82
2022/10/16 05:55:16;;;;;;;2.83;1.33;;;16.30;99.90;;;;;;4957546;28;20974;-82
2022/10/16 05:58:11;;;;;;;1.83;1.40;;;16.30;99.90;;;;;;4961821;28;20471;-83
2022/10/16 06:04:22;;;;;;;3.20;1.40;;;16.30;99.90;;;;;;4953870;28;20453;-82
2022/10/16 06:07:12;;;;;;;2.10;1.50;;;16.20;99.90;;;;;;4966597;28;20484;-83
2022/10/16 06:10:00;;;;;;;1.63;1.53;;;16.10;99.90;;;;;;4955890;28;20985;-84
2022/10/16 06:12:49;;;;;;;1.90;1.43;;;16.20;99.90;;;;;;5003179;28;20694;-84
2022/10/16 06:15:46;;;;;;;;;;;;;;;;;;;;;
2022/10/16 06:19:11;;;;;;;2.73;1.60;;;16.30;99.90;;;;;;5003432;28;20486;-83
2022/10/16 06:22:23;;;;;;;1.87;1.77;;;16.20;99.90;;;;;;4966365;28;20852;-82
2022/10/16 06:25:42;;;;;;;1.90;1.80;;;16.40;99.90;;;;;;4998896;28;20447;-83
2022/10/16 06:29:49;;;;;;;;;;;;;;;;;;;;;
2022/10/16 06:33:22;;;;;;;2.33;2.13;;;16.30;99.90;;;;;;4820854;29;20494;-83
2022/10/16 06:36:21;;;;;;;1.67;1.57;;;16.50;99.90;;;;;;4851454;29;20462;-83
2022/10/16 06:39:53;;;;;;;2.40;1.70;;;16.50;99.90;;;;;;4979391;28;20451;-83
2022/10/16 06:43:38;;;;;;;;;;;;;;;;;;;;;
2022/10/16 06:53:35;;;;;;;2.60;1.80;;;16.50;99.90;;;;;;4956620;28;20490;-82
2022/10/16 06:56:41;;;;;;;1.77;1.63;;;16.70;99.90;;;;;;5009793;28;20502;-81
2022/10/16 06:59:51;;;;;;;2.80;2.10;;;16.70;99.90;;;;;;5007666;28;20902;-83
2022/10/16 07:03:27;;;;;;;1.70;1.53;;;16.60;99.90;;;;;;4998946;28;20447;-82
2022/10/16 07:06:21;;;;;;;1.80;1.47;;;16.40;99.90;;;;;;4998743;28;20533;-84
2022/10/16 07:10:04;;;;;;;1.50;1.40;;;16.90;99.90;;;;;;4992606;28;20439;-82
2022/10/16 07:16:47;;;;;;;2.47;1.53;;;16.80;99.90;;;;;;4956938;28;21135;-80
2022/10/16 07:19:39;;;;;;;1.70;1.60;;;16.90;99.90;;;;;;4935474;29;20560;-81
2022/10/16 07:22:25;;;;;;;1.87;1.73;;;17.60;99.90;;;;;;4946983;29;20543;-83
2022/10/16 07:25:29;;;;;;;2.00;1.90;;;19.70;99.90;;;;;;4940129;29;20449;-82
2022/10/16 07:28:21;;;;;;;3.30;2.53;;;19.40;98.90;;;;;;4970160;28;20573;-82
2022/10/16 07:31:33;;;;;;;1.90;1.80;;;18.50;99.90;;;;;;4997217;28;20458;-83
2022/10/16 07:35:01;;;;;;;5.67;3.90;;;17.80;99.90;;;;;;4994521;28;20574;-83
2022/10/16 07:38:42;;;;;;;2.13;1.50;;;17.30;99.90;;;;;;4989040;28;20498;-83
2022/10/16 07:46:27;;;;;;;1.67;1.37;;;17.10;99.90;;;;;;4942224;28;20449;-81
2022/10/16 07:53:20;;;;;;;2.73;1.10;;;18.00;99.90;;;;;;4958621;28;21430;-82
2022/10/16 08:00:14;;;;;;;1.70;1.60;;;18.30;99.90;;;;;;4867222;29;20506;-84
2022/10/16 08:04:05;;;;;;;2.37;1.50;;;18.10;99.90;;;;;;4937467;29;21028;-83
2022/10/16 08:06:55;;;;;;;1.80;1.63;;;17.80;99.90;;;;;;4921230;28;20485;-84
2022/10/16 08:10:26;;;;;;;2.40;1.77;;;17.80;99.90;;;;;;4949833;28;20891;-82
2022/10/16 08:17:01;;;;;;;2.20;1.60;;;17.70;99.90;;;;;;4966987;28;20473;-82
2022/10/16 08:23:47;;;;;;;;;;;;;;;;;;;;;
2022/10/16 08:26:58;;;;;;;3.33;1.50;;;17.90;99.90;;;;;;4904954;23;20492;-83
2022/10/16 08:34:08;;;;;;;1.33;1.23;;;18.40;99.90;;;;;;4990756;28;20479;-83
2022/10/16 08:37:21;;;;;;;1.10;1.10;;;18.60;99.90;;;;;;4970327;28;20463;-83
2022/10/16 08:40:21;;;;;;;1.80;1.10;;;18.60;99.90;;;;;;4964878;28;20976;-82
2022/10/16 08:44:10;;;;;;;;;;;;;;;;;;;;;
2022/10/16 08:48:11;;;;;;;2.53;0.97;;;18.70;99.90;;;;;;4968682;28;20598;-83
2022/10/16 08:51:58;;;;;;;1.00;1.00;;;18.90;99.90;;;;;;4899745;29;20446;-83
2022/10/16 08:54:57;;;;;;;1.20;0.90;;;18.80;99.70;;;;;;4912736;29;21012;-84
2022/10/16 08:58:54;;;;;;;0.70;0.70;;;18.80;99.90;;;;;;4855929;29;21090;-83
2022/10/16 09:02:34;;;;;;;1.03;0.80;;;18.70;99.90;;;;;;4839140;29;20462;-83
2022/10/16 09:05:44;;;;;;;1.23;0.80;;;18.70;99.80;;;;;;4861660;29;20457;-82
2022/10/16 09:08:52;;;;;;;0.70;0.70;;;18.90;99.50;;;;;;4859729;29;20972;-84
2022/10/16 09:12:17;;;;;;;0.83;0.73;;;19.00;99.00;;;;;;4860977;29;20452;-84
2022/10/16 09:15:25;;;;;;;1.30;1.07;;;18.90;98.80;;;;;;4843061;29;20462;-84
2022/10/16 09:18:51;;;;;;;0.90;0.70;;;18.40;99.80;;;;;;4849282;29;20570;-82
2022/10/16 09:26:02;;;;;;;2.70;0.90;;;19.00;97.90;;;;;;4932003;29;20413;-84
2022/10/16 09:29:00;;;;;;;1.13;1.10;;;19.00;96.90;;;;;;4914355;29;20465;-82
2022/10/16 09:31:57;;;;;;;1.37;1.27;;;18.50;98.00;;;;;;4879814;29;20464;-83
2022/10/16 09:38:30;;;;;;;0.87;0.83;;;20.50;95.90;;;;;;4937756;29;20872;-83
2022/10/16 09:42:29;;;;;;;;;;;;;;;;;;;;;
2022/10/16 09:49:47;;;;;;;0.60;0.50;;;25.00;77.10;;;;;;4934715;29;20437;-84
2022/10/16 09:53:33;;;;;;;;;;;;;;;;;;;;;
2022/10/16 09:59:23;;;;;;;1.00;0.80;;;22.70;81.20;;;;;;1242044;26;20462;-84
2022/10/16 10:02:29;;;;;;;0.97;0.60;;;22.10;86.30;;;;;;5016239;28;20475;-83
2022/10/16 10:05:40;;;;;;;0.80;0.70;;;22.10;84.00;;;;;;4995867;28;20465;-83
2022/10/16 10:08:50;;;;;;;0.77;0.70;;;21.40;86.10;;;;;;5060979;23;20517;-85
2022/10/16 10:12:00;;;;;;;0.70;0.67;;;21.40;88.00;;;;;;5001093;28;21289;-83
2022/10/16 10:15:29;;;;;;;0.90;0.70;;;21.30;88.30;;;;;;4973038;28;20509;-84
2022/10/16 10:18:49;;;;;;;1.77;1.63;;;21.00;89.10;;;;;;4969195;28;20754;-84
2022/10/16 10:22:14;;;;;;;0.50;0.50;;;20.40;90.30;;;;;;4941155;29;20434;-84
2022/10/16 10:25:46;;;;;;;2.30;0.87;;;20.30;90.70;;;;;;4926338;29;20505;-84
2022/10/16 10:29:11;;;;;;;1.67;0.57;;;20.10;91.10;;;;;;4920182;29;20465;-84
2022/10/16 10:32:42;;;;;;;0.97;0.70;;;20.50;90.90;;;;;;4911497;29;20449;-84
2022/10/16 10:35:55;;;;;;;1.17;0.80;;;20.70;90.60;;;;;;4920544;29;20461;-80
2022/10/16 10:39:27;;;;;;;0.70;0.60;;;20.60;90.80;;;;;;4911307;29;20449;-84
2022/10/16 10:46:44;;;;;;;2.90;1.00;;;20.40;90.80;;;;;;4887969;29;21005;-83
2022/10/16 10:50:47;;;;;;;1.10;0.77;;;20.50;90.70;;;;;;4901895;29;20464;-83
2022/10/16 11:03:18;;;;;;;1.53;0.80;;;20.90;89.40;;;;;;1222152;23;20510;-84
2022/10/16 11:10:50;;;;;;;2.53;0.57;;;21.40;86.20;;;;;;4967660;28;20437;-82
2022/10/16 11:17:25;;;;;;;;;;;;;;;;;;;;;
2022/10/16 11:24:15;;;;;;;1.20;0.57;;;21.30;84.50;;;;;;4976744;28;20467;-82
2022/10/16 11:27:36;;;;;;;0.60;0.60;;;21.30;85.10;;;;;;4994979;23;20491;-83
2022/10/16 11:30:41;;;;;;;1.77;0.80;;;21.40;84.40;;;;;;4999809;28;20530;-82
2022/10/16 11:33:49;;;;;;;1.60;0.60;;;21.30;83.00;;;;;;4953198;28;20486;-82
2022/10/16 11:36:55;;;;;;;0.70;0.60;;;21.00;84.00;;;;;;4991909;28;20594;-83
2022/10/16 11:39:36;;;;;;;1.23;0.70;;;21.60;82.00;;;;;;4991949;28;20546;-83
2022/10/16 11:42:40;;;;;;;1.90;1.13;;;21.30;82.60;;;;;;4997525;28;20494;-82
2022/10/16 11:46:02;;;;;;;0.50;0.50;;;21.00;84.50;;;;;;4924828;28;20470;-85
2022/10/16 11:49:17;;;;;;;0.80;0.60;;;21.00;84.20;;;;;;4897308;28;20462;-82
2022/10/16 11:56:16;;;;;;;0.80;0.50;;;21.90;81.80;;;;;;5007386;28;20495;-84
2022/10/16 11:59:40;;;;;;;1.33;0.50;;;22.10;80.70;;;;;;4949290;28;20464;-82
2022/10/16 12:06:07;;;;;;;1.83;0.70;;;21.40;83.80;;;;;;4999116;28;20449;-82
2022/10/16 12:08:42;;;;;;;1.57;0.60;;;21.30;84.50;;;;;;4982290;28;20458;-81
2022/10/16 12:15:05;;;;;;;0.90;0.50;;;21.70;81.90;;;;;;5013668;28;20478;-84
2022/10/16 12:18:28;;;;;;;1.00;0.90;;;21.60;81.60;;;;;;5017246;28;20442;-84
2022/10/16 12:21:36;;;;;;;1.07;0.53;;;21.30;82.30;;;;;;5015723;28;20435;-82
2022/10/16 12:24:49;;;;;;;3.17;1.17;;;21.20;82.60;;;;;;5017926;28;20466;-82
2022/10/16 12:36:04;;;;;;;;;;;;;;;;;;;;;
2022/10/16 12:39:39;;;;;;;;;;;;;;;;;;;;;
2022/10/16 12:43:39;;;;;;;2.60;1.00;;;22.20;77.50;;;;;;4947312;29;20513;-83
2022/10/16 12:46:59;;;;;;;0.73;0.60;;;22.20;78.10;;;;;;4914014;28;20882;-83
2022/10/16 12:50:35;;;;;;;;;;;;;;;;;;;;;
2022/10/16 12:57:36;;;;;;;1.30;0.80;;;22.50;76.50;;;;;;4963069;28;20502;-84
2022/10/16 13:04:23;;;;;;;1.63;0.80;;;22.00;77.70;;;;;;4958392;28;20473;-83
2022/10/16 13:07:32;;;;;;;2.67;1.53;;;21.80;79.60;;;;;;4984576;28;20487;-82
2022/10/16 13:21:09;;;;;;;1.43;0.70;;;22.00;79.50;;;;;;5123113;23;20493;-84
2022/10/16 13:32:20;;;;;;;0.60;0.60;;;21.70;81.30;;;;;;4923112;28;20431;-83
2022/10/16 13:35:34;;;;;;;1.27;0.80;;;21.70;81.20;;;;;;5000150;28;20488;-83
2022/10/16 13:39:14;;;;;;;0.70;0.60;;;22.00;81.00;;;;;;5046117;23;20524;-84
2022/10/16 13:42:25;;;;;;;;;;;;;;;;;;;;;
2022/10/16 13:46:05;;;;;;;0.70;0.70;;;22.00;80.40;;;;;;5000263;28;20420;-84
2022/10/16 13:49:05;;;;;;;0.80;0.70;;;22.00;80.30;;;;;;4905986;28;20451;-83
2022/10/16 13:52:27;;;;;;;2.70;2.50;;;22.00;80.90;;;;;;4977024;28;20491;-84
2022/10/16 13:55:23;;;;;;;1.47;0.70;;;22.10;81.30;;;;;;4904750;29;20629;-83
2022/10/16 13:58:35;;;;;;;2.60;1.53;;;22.30;80.90;;;;;;5030864;23;20508;-84
2022/10/16 14:01:54;;;;;;;;;;;;;;;;;;;;;
2022/10/16 14:04:49;;;;;;;2.10;0.60;;;22.00;81.40;;;;;;4999045;28;20468;-83
2022/10/16 14:07:43;;;;;;;1.03;0.77;;;21.80;82.20;;;;;;4997877;28;20506;-83
2022/10/16 14:10:52;;;;;;;0.80;0.60;;;21.70;83.50;;;;;;5005365;28;20462;-83
2022/10/16 14:13:55;;;;;;;0.60;0.60;;;21.60;83.40;;;;;;4982600;28;20461;-84
2022/10/16 14:17:02;;;;;;;;;;;;;;;;;;;;;
2022/10/16 14:20:32;;;;;;;;;;;;;;;;;;;;;
2022/10/16 14:30:24;;;;;;;2.03;1.83;;;21.70;85.70;;;;;;5071593;22;20485;-84
2022/10/16 14:36:55;;;;;;;1.07;0.83;;;21.50;86.30;;;;;;5067789;23;20490;-83
2022/10/16 14:39:55;;;;;;;1.70;0.70;;;21.80;87.10;;;;;;4994934;28;20529;-83
2022/10/16 14:43:34;;;;;;;1.27;0.60;;;21.70;87.70;;;;;;4992903;28;20466;-84
2022/10/16 14:46:53;;;;;;;1.30;0.70;;;21.80;88.00;;;;;;4988500;28;20994;-83
2022/10/16 14:50:02;;;;;;;;;;;;;;;;;;;;;
2022/10/16 15:01:22;;;;;;;1.20;0.67;;;21.10;90.50;;;;;;4927413;28;20446;-82
2022/10/16 15:05:00;;;;;;;;;;;;;;;;;;;;;
2022/10/16 15:24:03;;;;;;;1.63;0.80;;;21.30;91.80;;;;;;4787851;29;20588;-83
2022/10/16 15:27:19;;;;;;;2.70;1.30;;;21.40;91.90;;;;;;4793533;29;20473;-83
2022/10/16 15:30:31;;;;;;;0.90;0.70;;;21.30;91.90;;;;;;4777623;29;20461;-83
2022/10/16 15:33:32;;;;;;;0.70;0.70;;;21.10;92.40;;;;;;4830745;29;20504;-83
2022/10/16 15:36:19;;;;;;;0.80;0.70;;;20.90;92.80;;;;;;4856268;29;20499;-84
2022/10/16 15:39:19;;;;;;;1.27;0.83;;;21.30;92.50;;;;;;4869822;29;20585;-84
2022/10/16 15:42:13;;;;;;;1.10;0.90;;;21.50;92.10;;;;;;4875539;29;20480;-84
2022/10/16 15:46:10;;;;;;;;;;;;;;;;;;;;;
2022/10/16 16:28:07;;;;;;;0.90;0.90;;;20.70;95.60;;;;;;5019441;28;20618;-83
2022/10/16 16:31:43;;;;;;;0.93;0.90;;;20.70;95.80;;;;;;5002451;28;20452;-83
2022/10/16 17:05:36;;;;;;;3.10;1.27;;;20.40;99.00;;;;;;5050231;28;20496;-84
2022/10/16 17:35:21;;;;;;;1.20;1.10;;;20.00;99.90;;;;;;4920200;29;20558;-83
2022/10/16 17:39:03;;;;;;;;;;;;;;;;;;;;;
2022/10/16 17:42:45;;;;;;;1.30;1.20;;;19.90;99.90;;;;;;4866211;29;20438;-84
2022/10/16 17:53:43;;;;;;;3.13;1.40;;;20.10;99.90;;;;;;4917252;28;20453;-83
2022/10/16 18:00:06;;;;;;;1.67;1.37;;;19.90;99.90;;;;;;5061095;23;20471;-83
2022/10/16 18:07:42;;;;;;;1.40;1.30;;;19.80;99.90;;;;;;4894255;29;20449;-84
2022/10/16 18:11:09;;;;;;;3.43;1.30;;;20.00;99.90;;;;;;4876816;29;20460;-84
2022/10/16 18:18:32;;;;;;;1.80;1.10;;;19.80;99.90;;;;;;4849517;29;20463;-85
2022/10/16 18:21:48;;;;;;;2.13;1.77;;;19.80;99.90;;;;;;4916107;29;20463;-85
2022/10/16 18:29:03;;;;;;;1.27;1.17;;;19.90;99.90;;;;;;5180665;23;20487;-83
2022/10/16 18:36:31;;;;;;;;;;;;;;;;;;;;;
2022/10/16 18:43:38;;;;;;;2.60;1.30;;;19.80;99.90;;;;;;5018920;28;20492;-82
2022/10/16 18:47:22;;;;;;;4.67;1.80;;;19.70;99.90;;;;;;5012939;28;20466;-83
2022/10/16 18:50:15;;;;;;;2.40;1.50;;;19.60;99.90;;;;;;4938652;29;20445;-83
2022/10/16 18:57:23;;;;;;;1.43;1.10;;;19.40;99.90;;;;;;4886436;29;21012;-83
2022/10/16 19:16:02;;;;;;;3.10;1.47;;;19.50;99.90;;;;;;4811269;29;20541;-84
2022/10/16 19:19:14;;;;;;;2.70;1.57;;;19.20;99.90;;;;;;4776559;29;20457;-84
2022/10/16 19:28:59;;;;;;;;;;;;;;;;;;;;;
2022/10/16 19:31:42;;;;;;;2.77;1.60;;;19.10;99.90;;;;;;4992785;28;20563;-83
2022/10/16 19:34:52;;;;;;;1.57;1.27;;;19.10;99.90;;;;;;4997505;28;20461;-83
2022/10/16 19:37:56;;;;;;;2.37;1.90;;;19.50;99.90;;;;;;4974788;28;21390;-83
2022/10/16 19:41:04;;;;;;;4.73;2.10;;;19.70;99.90;;;;;;4995496;28;20781;-83
2022/10/16 19:44:28;;;;;;;2.20;1.97;;;19.60;99.90;;;;;;4999918;28;20475;-82
2022/10/16 19:47:35;;;;;;;1.87;1.50;;;19.80;99.90;;;;;;4995159;28;20462;-83
2022/10/16 19:50:18;;;;;;;3.00;1.80;;;19.60;99.90;;;;;;4996522;28;20524;-82
2022/10/16 19:53:03;;;;;;;2.00;1.57;;;19.70;99.90;;;;;;5008354;28;20507;-85
2022/10/16 19:59:02;;;;;;;2.30;2.17;;;19.50;99.90;;;;;;5204375;22;20574;-84
2022/10/16 20:02:42;;;;;;;2.10;2.00;;;19.40;99.90;;;;;;5091693;28;20455;-85
2022/10/16 20:05:46;;;;;;;3.70;1.80;;;19.60;99.90;;;;;;5083113;28;20482;-84
2022/10/16 20:08:50;;;;;;;2.80;1.90;;;19.60;99.90;;;;;;5037610;28;20439;-84
2022/10/16 20:11:57;;;;;;;2.23;2.03;;;19.60;99.90;;;;;;5042103;28;20460;-84
2022/10/16 20:14:56;;;;;;;3.00;2.30;;;19.40;99.90;;;;;;5047176;28;20586;-84
2022/10/16 20:21:43;;;;;;;2.20;1.97;;;19.70;99.90;;;;;;5085862;28;20432;-85
2022/10/16 20:24:40;;;;;;;1.90;1.70;;;19.50;99.90;;;;;;5069603;28;20483;-84
2022/10/16 20:31:21;;;;;;;;;;;;;;;;;;;;;
2022/10/16 20:34:57;;;;;;;2.37;2.17;;;19.00;99.90;;;;;;5026849;28;20498;-83
2022/10/16 20:38:27;;;;;;;2.30;2.10;;;19.10;99.90;;;;;;5045305;28;20444;-82
2022/10/16 20:41:26;;;;;;;3.77;3.10;;;19.10;99.90;;;;;;5031972;28;20471;-84
2022/10/16 20:44:26;;;;;;;4.30;3.27;;;19.10;99.90;;;;;;5042535;28;20427;-82
2022/10/16 20:47:19;;;;;;;2.50;2.20;;;19.10;99.90;;;;;;5013905;28;20479;-82
2022/10/16 20:50:19;;;;;;;2.70;2.50;;;19.40;99.90;;;;;;5043921;28;20507;-82
2022/10/16 20:53:48;;;;;;;3.43;3.13;;;19.40;99.90;;;;;;5048773;28;20441;-83
2022/10/16 20:56:56;;;;;;;2.57;2.37;;;19.30;99.90;;;;;;5044921;28;20481;-82
2022/10/16 20:59:59;;;;;;;5.17;3.73;;;19.10;99.90;;;;;;5045679;28;20458;-82
2022/10/16 21:02:29;;;;;;;6.23;3.57;;;19.00;99.90;;;;;;5039901;28;20449;-83
2022/10/16 21:05:04;;;;;;;3.30;3.00;;;18.70;99.90;;;;;;5034757;28;20457;-85
2022/10/16 21:07:38;;;;;;;3.20;2.47;;;18.70;99.90;;;;;;5035470;28;20563;-83
2022/10/16 21:10:40;;;;;;;3.27;3.00;;;18.90;99.90;;;;;;5042164;28;20472;-84
2022/10/16 21:13:19;;;;;;;3.37;2.70;;;19.00;99.90;;;;;;5035439;28;20544;-83
2022/10/16 21:15:46;;;;;;;3.90;2.80;;;18.80;99.90;;;;;;5059414;28;20524;-83
2022/10/16 21:18:15;;;;;;;3.17;2.87;;;18.70;99.90;;;;;;5031104;28;20490;-83
2022/10/16 21:20:46;;;;;;;3.33;2.83;;;18.70;99.90;;;;;;5085867;28;20446;-84
2022/10/16 21:23:19;;;;;;;3.63;3.20;;;18.70;99.90;;;;;;5053895;28;21144;-83
2022/10/16 21:25:52;;;;;;;2.90;2.70;;;18.60;99.90;;;;;;5039747;28;20444;-83
2022/10/16 21:28:22;;;;;;;3.00;2.80;;;18.60;99.90;;;;;;5029613;28;20449;-84
2022/10/16 21:30:49;;;;;;;4.67;3.40;;;18.60;99.90;;;;;;5038875;28;20450;-84
2022/10/16 21:33:18;;;;;;;3.83;3.53;;;18.60;99.90;;;;;;5069401;28;20478;-84
2022/10/16 21:35:51;;;;;;;4.20;3.63;;;18.60;99.90;;;;;;5060446;28;20535;-82
2022/10/16 21:38:19;;;;;;;3.23;2.93;;;18.50;99.90;;;;;;5037794;28;20540;-82
2022/10/16 21:40:51;;;;;;;4.30;3.63;;;18.40;99.90;;;;;;5037983;28;20513;-84
2022/10/16 21:43:24;;;;;;;2.80;2.60;;;18.50;99.90;;;;;;5039023;28;20448;-84
2022/10/16 21:45:56;;;;;;;4.00;3.47;;;18.60;99.90;;;;;;5040017;28;20494;-85
2022/10/16 21:48:34;;;;;;;4.07;3.20;;;18.60;99.90;;;;;;5060861;28;20433;-85
2022/10/16 21:51:05;;;;;;;3.93;3.53;;;18.60;99.90;;;;;;5067129;28;20445;-83
2022/10/16 21:53:44;;;;;;;3.87;3.57;;;18.60;99.90;;;;;;5061312;28;20476;-82
2022/10/16 21:56:16;;;;;;;3.60;3.30;;;18.60;99.90;;;;;;5068444;28;20474;-83
2022/10/16 21:58:48;;;;;;;3.50;3.23;;;18.50;99.90;;;;;;5068726;28;20440;-86
2022/10/16 22:01:26;;;;;;;3.20;3.00;;;18.40;99.90;;;;;;5057085;28;20528;-83
2022/10/16 22:04:08;;;;;;;5.87;3.70;;;18.50;99.90;;;;;;5076531;28;20431;-82
2022/10/16 22:07:35;;;;;;;3.83;3.53;;;18.70;99.90;;;;;;5047532;28;20998;-82
2022/10/16 22:10:37;;;;;;;;;;;;;;;;;;;;;
2022/10/16 22:14:05;;;;;;;4.47;4.07;;;18.50;99.90;;;;;;4989215;28;20464;-82
2022/10/16 22:17:04;;;;;;;4.47;3.73;;;18.40;99.90;;;;;;4925209;29;20478;-82
2022/10/16 22:23:05;;;;;;;3.97;3.67;;;18.50;99.90;;;;;;4908752;29;20470;-84
2022/10/16 22:26:11;;;;;;;4.40;3.60;;;18.50;99.90;;;;;;4911870;29;20479;-82
2022/10/16 22:36:13;;;;;;;4.80;4.30;;;18.50;99.90;;;;;;4927234;29;20481;-83
2022/10/16 22:39:02;;;;;;;4.60;4.27;;;18.30;99.90;;;;;;4936605;29;20451;-85
2022/10/16 22:41:31;;;;;;;7.83;5.20;;;18.30;99.90;;;;;;4926412;29;20509;-85
2022/10/16 22:44:22;;;;;;;6.60;4.80;;;18.30;99.90;;;;;;4919849;29;20488;-84
2022/10/16 22:47:09;;;;;;;5.83;4.37;;;18.40;99.90;;;;;;4931218;29;20512;-83
2022/10/16 22:49:43;;;;;;;5.20;4.80;;;18.30;99.90;;;;;;4944534;29;20959;-83
2022/10/16 22:52:23;;;;;;;4.60;4.20;;;18.40;99.90;;;;;;4970363;28;20453;-83
2022/10/16 22:54:58;;;;;;;5.10;4.70;;;18.40;99.90;;;;;;4961729;28;20519;-84
2022/10/16 22:57:34;;;;;;;4.90;4.40;;;18.40;99.90;;;;;;4947249;28;21156;-84
2022/10/16 23:00:13;;;;;;;6.47;5.10;;;18.40;99.90;;;;;;4978567;28;20491;-82
2022/10/16 23:02:49;;;;;;;5.07;4.67;;;18.40;99.90;;;;;;5025890;28;20452;-83
2022/10/16 23:05:24;;;;;;;4.93;4.43;;;18.30;99.90;;;;;;5047912;28;20440;-83
